sensor_id;sensor_type;location;lat;lon;timestamp;P1;durP1;ratioP1;P2;durP2;ratioP2
8247;SDS011;4164;49.844;8.830;2023-06-10T00:02:15;18.37;;;14.73;;
8247;SDS011;4164;49.844;8.830;2023-06-10T00:04:41;15.80;;;14.20;;
8247;SDS011;4164;49.844;8.830;2023-06-10T00:07:07;14.80;;;13.20;;
8247;SDS011;4164;49.844;8.830;2023-06-10T00:09:37;15.43;;;13.80;;
8247;SDS011;4164;49.844;8.830;2023-06-10T00:12:03;15.90;;;14.07;;
8247;SDS011;4164;49.844;8.830;2023-06-10T00:14:30;22.73;;;13.93;;
8247;SDS011;4164;49.844;8.830;2023-06-10T00:16:55;16.30;;;11.63;;
8247;SDS011;4164;49.844;8.830;2023-06-10T00:19:22;16.37;;;13.27;;
8247;SDS011;4164;49.844;8.830;2023-06-10T00:21:50;13.47;;;11.77;;
8247;SDS011;4164;49.844;8.830;2023-06-10T00:24:17;17.53;;;12.10;;
8247;SDS011;4164;49.844;8.830;2023-06-10T00:26:43;16.73;;;11.77;;
8247;SDS011;4164;49.844;8.830;2023-06-10T00:29:08;11.97;;;10.80;;
8247;SDS011;4164;49.844;8.830;2023-06-10T00:31:35;14.73;;;11.33;;
8247;SDS011;4164;49.844;8.830;2023-06-10T00:34:02;12.17;;;10.93;;
8247;SDS011;4164;49.844;8.830;2023-06-10T00:36:27;14.10;;;12.67;;
8247;SDS011;4164;49.844;8.830;2023-06-10T00:38:53;13.57;;;11.43;;
8247;SDS011;4164;49.844;8.830;2023-06-10T00:41:19;14.30;;;11.23;;
8247;SDS011;4164;49.844;8.830;2023-06-10T00:43:45;13.30;;;12.00;;
8247;SDS011;4164;49.844;8.830;2023-06-10T00:46:11;17.73;;;11.23;;
8247;SDS011;4164;49.844;8.830;2023-06-10T00:48:37;12.43;;;10.93;;
8247;SDS011;4164;49.844;8.830;2023-06-10T00:51:04;12.53;;;11.27;;
8247;SDS011;4164;49.844;8.830;2023-06-10T00:53:30;14.97;;;11.50;;
8247;SDS011;4164;49.844;8.830;2023-06-10T00:55:57;15.23;;;11.13;;
8247;SDS011;4164;49.844;8.830;2023-06-10T00:58:23;11.70;;;10.50;;
8247;SDS011;4164;49.844;8.830;2023-06-10T01:00:50;15.23;;;11.63;;
8247;SDS011;4164;49.844;8.830;2023-06-10T01:03:16;13.23;;;11.20;;
8247;SDS011;4164;49.844;8.830;2023-06-10T01:05:42;14.50;;;11.03;;
8247;SDS011;4164;49.844;8.830;2023-06-10T01:13:28;17.60;;;12.80;;
8247;SDS011;4164;49.844;8.830;2023-06-10T01:15:56;13.17;;;11.80;;
8247;SDS011;4164;49.844;8.830;2023-06-10T01:18:23;13.30;;;11.90;;
8247;SDS011;4164;49.844;8.830;2023-06-10T01:20:55;12.50;;;11.17;;
8247;SDS011;4164;49.844;8.830;2023-06-10T01:23:21;13.07;;;11.77;;
8247;SDS011;4164;49.844;8.830;2023-06-10T01:25:54;13.70;;;12.30;;
8247;SDS011;4164;49.844;8.830;2023-06-10T01:28:27;12.43;;;11.10;;
8247;SDS011;4164;49.844;8.830;2023-06-10T01:33:27;19.07;;;11.17;;
8247;SDS011;4164;49.844;8.830;2023-06-10T01:35:56;14.60;;;12.30;;
8247;SDS011;4164;49.844;8.830;2023-06-10T01:38:23;15.87;;;11.57;;
8247;SDS011;4164;49.844;8.830;2023-06-10T01:40:52;14.60;;;10.70;;
8247;SDS011;4164;49.844;8.830;2023-06-10T01:43:20;12.10;;;10.30;;
8247;SDS011;4164;49.844;8.830;2023-06-10T01:45:46;14.20;;;11.20;;
8247;SDS011;4164;49.844;8.830;2023-06-10T01:48:12;13.70;;;11.07;;
8247;SDS011;4164;49.844;8.830;2023-06-10T01:50:37;15.17;;;11.63;;
8247;SDS011;4164;49.844;8.830;2023-06-10T01:53:03;11.37;;;10.27;;
8247;SDS011;4164;49.844;8.830;2023-06-10T01:55:30;13.30;;;11.20;;
8247;SDS011;4164;49.844;8.830;2023-06-10T01:57:56;12.87;;;11.57;;
8247;SDS011;4164;49.844;8.830;2023-06-10T02:00:21;15.23;;;10.87;;
8247;SDS011;4164;49.844;8.830;2023-06-10T02:02:47;12.67;;;10.40;;
8247;SDS011;4164;49.844;8.830;2023-06-10T02:05:12;12.33;;;11.03;;
8247;SDS011;4164;49.844;8.830;2023-06-10T02:07:38;12.73;;;10.00;;
8247;SDS011;4164;49.844;8.830;2023-06-10T02:10:04;15.70;;;11.07;;
8247;SDS011;4164;49.844;8.830;2023-06-10T02:12:30;15.10;;;12.17;;
8247;SDS011;4164;49.844;8.830;2023-06-10T02:14:56;13.87;;;11.33;;
8247;SDS011;4164;49.844;8.830;2023-06-10T02:17:21;14.53;;;10.20;;
8247;SDS011;4164;49.844;8.830;2023-06-10T02:19:48;14.23;;;11.20;;
8247;SDS011;4164;49.844;8.830;2023-06-10T02:22:18;11.80;;;10.60;;
8247;SDS011;4164;49.844;8.830;2023-06-10T02:24:45;13.60;;;11.47;;
8247;SDS011;4164;49.844;8.830;2023-06-10T02:27:11;13.60;;;12.17;;
8247;SDS011;4164;49.844;8.830;2023-06-10T02:29:36;16.97;;;12.17;;
8247;SDS011;4164;49.844;8.830;2023-06-10T02:32:02;13.93;;;12.07;;
8247;SDS011;4164;49.844;8.830;2023-06-10T02:34:28;18.07;;;12.03;;
8247;SDS011;4164;49.844;8.830;2023-06-10T02:36:54;13.23;;;11.90;;
8247;SDS011;4164;49.844;8.830;2023-06-10T02:39:21;13.90;;;11.63;;
8247;SDS011;4164;49.844;8.830;2023-06-10T02:41:46;13.80;;;12.13;;
8247;SDS011;4164;49.844;8.830;2023-06-10T02:44:12;13.03;;;11.63;;
8247;SDS011;4164;49.844;8.830;2023-06-10T02:46:37;15.90;;;12.30;;
8247;SDS011;4164;49.844;8.830;2023-06-10T02:49:03;15.17;;;12.13;;
8247;SDS011;4164;49.844;8.830;2023-06-10T02:51:29;16.17;;;12.33;;
8247;SDS011;4164;49.844;8.830;2023-06-10T02:53:54;15.63;;;11.80;;
8247;SDS011;4164;49.844;8.830;2023-06-10T02:56:20;17.43;;;12.23;;
8247;SDS011;4164;49.844;8.830;2023-06-10T02:58:46;13.97;;;12.57;;
8247;SDS011;4164;49.844;8.830;2023-06-10T03:01:13;12.83;;;11.53;;
8247;SDS011;4164;49.844;8.830;2023-06-10T03:03:39;13.47;;;12.07;;
8247;SDS011;4164;49.844;8.830;2023-06-10T03:06:07;13.90;;;11.83;;
8247;SDS011;4164;49.844;8.830;2023-06-10T03:08:35;15.43;;;11.87;;
8247;SDS011;4164;49.844;8.830;2023-06-10T03:11:01;17.53;;;13.07;;
8247;SDS011;4164;49.844;8.830;2023-06-10T03:13:26;14.20;;;11.30;;
8247;SDS011;4164;49.844;8.830;2023-06-10T03:15:52;14.77;;;12.77;;
8247;SDS011;4164;49.844;8.830;2023-06-10T03:18:18;15.30;;;12.67;;
8247;SDS011;4164;49.844;8.830;2023-06-10T03:20:43;17.10;;;12.93;;
8247;SDS011;4164;49.844;8.830;2023-06-10T03:23:09;15.07;;;12.80;;
8247;SDS011;4164;49.844;8.830;2023-06-10T03:25:35;14.47;;;12.27;;
8247;SDS011;4164;49.844;8.830;2023-06-10T03:28:00;14.37;;;12.93;;
8247;SDS011;4164;49.844;8.830;2023-06-10T03:30:27;16.67;;;13.70;;
8247;SDS011;4164;49.844;8.830;2023-06-10T03:32:52;15.07;;;13.57;;
8247;SDS011;4164;49.844;8.830;2023-06-10T03:35:18;14.80;;;12.47;;
8247;SDS011;4164;49.844;8.830;2023-06-10T03:37:44;18.30;;;13.40;;
8247;SDS011;4164;49.844;8.830;2023-06-10T03:40:09;16.50;;;14.67;;
8247;SDS011;4164;49.844;8.830;2023-06-10T03:42:35;18.33;;;13.50;;
8247;SDS011;4164;49.844;8.830;2023-06-10T03:45:01;16.63;;;12.73;;
8247;SDS011;4164;49.844;8.830;2023-06-10T03:47:32;17.27;;;13.83;;
8247;SDS011;4164;49.844;8.830;2023-06-10T03:50:05;16.23;;;13.50;;
8247;SDS011;4164;49.844;8.830;2023-06-10T03:52:31;15.60;;;12.87;;
8247;SDS011;4164;49.844;8.830;2023-06-10T03:54:57;15.33;;;13.13;;
8247;SDS011;4164;49.844;8.830;2023-06-10T03:57:22;15.50;;;13.60;;
8247;SDS011;4164;49.844;8.830;2023-06-10T03:59:48;17.67;;;14.43;;
8247;SDS011;4164;49.844;8.830;2023-06-10T04:02:13;17.93;;;14.90;;
8247;SDS011;4164;49.844;8.830;2023-06-10T04:04:39;18.97;;;13.83;;
8247;SDS011;4164;49.844;8.830;2023-06-10T04:07:06;22.87;;;14.47;;
8247;SDS011;4164;49.844;8.830;2023-06-10T04:09:33;16.87;;;14.20;;
8247;SDS011;4164;49.844;8.830;2023-06-10T04:11:58;16.23;;;13.00;;
8247;SDS011;4164;49.844;8.830;2023-06-10T04:14:24;20.43;;;14.00;;
8247;SDS011;4164;49.844;8.830;2023-06-10T04:16:50;15.33;;;13.67;;
8247;SDS011;4164;49.844;8.830;2023-06-10T04:19:15;19.17;;;13.93;;
8247;SDS011;4164;49.844;8.830;2023-06-10T04:21:41;17.93;;;13.73;;
8247;SDS011;4164;49.844;8.830;2023-06-10T04:24:07;15.37;;;12.63;;
8247;SDS011;4164;49.844;8.830;2023-06-10T04:26:33;15.87;;;13.10;;
8247;SDS011;4164;49.844;8.830;2023-06-10T04:29:00;15.20;;;12.93;;
8247;SDS011;4164;49.844;8.830;2023-06-10T04:31:26;15.93;;;13.07;;
8247;SDS011;4164;49.844;8.830;2023-06-10T04:33:51;15.17;;;13.57;;
8247;SDS011;4164;49.844;8.830;2023-06-10T04:36:17;15.33;;;13.77;;
8247;SDS011;4164;49.844;8.830;2023-06-10T04:38:42;17.97;;;14.70;;
8247;SDS011;4164;49.844;8.830;2023-06-10T04:41:08;16.20;;;13.90;;
8247;SDS011;4164;49.844;8.830;2023-06-10T04:43:33;14.43;;;12.93;;
8247;SDS011;4164;49.844;8.830;2023-06-10T04:45:59;20.47;;;13.83;;
8247;SDS011;4164;49.844;8.830;2023-06-10T04:48:25;17.07;;;13.20;;
8247;SDS011;4164;49.844;8.830;2023-06-10T04:50:51;17.47;;;13.87;;
8247;SDS011;4164;49.844;8.830;2023-06-10T04:53:16;17.17;;;14.67;;
8247;SDS011;4164;49.844;8.830;2023-06-10T04:55:42;16.43;;;14.20;;
8247;SDS011;4164;49.844;8.830;2023-06-10T04:58:08;15.73;;;14.10;;
8247;SDS011;4164;49.844;8.830;2023-06-10T05:00:34;16.23;;;13.47;;
8247;SDS011;4164;49.844;8.830;2023-06-10T05:03:00;16.40;;;13.87;;
8247;SDS011;4164;49.844;8.830;2023-06-10T05:05:25;19.30;;;14.80;;
8247;SDS011;4164;49.844;8.830;2023-06-10T05:07:51;15.63;;;14.13;;
8247;SDS011;4164;49.844;8.830;2023-06-10T05:10:16;17.63;;;14.77;;
8247;SDS011;4164;49.844;8.830;2023-06-10T05:12:42;17.83;;;14.80;;
8247;SDS011;4164;49.844;8.830;2023-06-10T05:15:08;16.63;;;14.90;;
8247;SDS011;4164;49.844;8.830;2023-06-10T05:17:34;16.30;;;14.70;;
8247;SDS011;4164;49.844;8.830;2023-06-10T05:20:02;20.17;;;14.63;;
8247;SDS011;4164;49.844;8.830;2023-06-10T05:22:28;16.40;;;14.80;;
8247;SDS011;4164;49.844;8.830;2023-06-10T05:24:54;16.47;;;14.87;;
8247;SDS011;4164;49.844;8.830;2023-06-10T05:27:19;15.97;;;14.33;;
8247;SDS011;4164;49.844;8.830;2023-06-10T05:29:46;16.27;;;14.30;;
8247;SDS011;4164;49.844;8.830;2023-06-10T05:32:11;16.93;;;14.77;;
8247;SDS011;4164;49.844;8.830;2023-06-10T05:34:37;20.57;;;14.43;;
8247;SDS011;4164;49.844;8.830;2023-06-10T05:37:03;16.30;;;14.20;;
8247;SDS011;4164;49.844;8.830;2023-06-10T05:39:29;16.17;;;14.47;;
8247;SDS011;4164;49.844;8.830;2023-06-10T05:41:54;14.40;;;12.93;;
8247;SDS011;4164;49.844;8.830;2023-06-10T05:44:20;15.60;;;14.00;;
8247;SDS011;4164;49.844;8.830;2023-06-10T05:46:46;19.23;;;14.27;;
8247;SDS011;4164;49.844;8.830;2023-06-10T05:49:11;15.30;;;13.83;;
8247;SDS011;4164;49.844;8.830;2023-06-10T05:51:37;15.90;;;13.50;;
8247;SDS011;4164;49.844;8.830;2023-06-10T05:54:03;15.40;;;13.00;;
8247;SDS011;4164;49.844;8.830;2023-06-10T05:56:28;19.93;;;13.77;;
8247;SDS011;4164;49.844;8.830;2023-06-10T05:58:54;15.57;;;14.00;;
8247;SDS011;4164;49.844;8.830;2023-06-10T06:01:20;13.93;;;12.53;;
8247;SDS011;4164;49.844;8.830;2023-06-10T06:03:46;14.80;;;13.30;;
8247;SDS011;4164;49.844;8.830;2023-06-10T06:06:12;14.30;;;13.00;;
8247;SDS011;4164;49.844;8.830;2023-06-10T06:08:37;15.37;;;12.43;;
8247;SDS011;4164;49.844;8.830;2023-06-10T06:11:03;14.87;;;12.40;;
8247;SDS011;4164;49.844;8.830;2023-06-10T06:13:28;13.20;;;11.87;;
8247;SDS011;4164;49.844;8.830;2023-06-10T06:15:54;13.87;;;12.47;;
8247;SDS011;4164;49.844;8.830;2023-06-10T06:18:19;15.90;;;11.93;;
8247;SDS011;4164;49.844;8.830;2023-06-10T06:20:45;16.17;;;12.47;;
8247;SDS011;4164;49.844;8.830;2023-06-10T06:23:10;13.50;;;12.10;;
8247;SDS011;4164;49.844;8.830;2023-06-10T06:25:36;14.20;;;12.33;;
8247;SDS011;4164;49.844;8.830;2023-06-10T06:28:04;14.97;;;12.93;;
8247;SDS011;4164;49.844;8.830;2023-06-10T06:30:34;13.93;;;11.60;;
8247;SDS011;4164;49.844;8.830;2023-06-10T06:33:00;14.20;;;12.70;;
8247;SDS011;4164;49.844;8.830;2023-06-10T06:35:26;12.20;;;11.00;;
8247;SDS011;4164;49.844;8.830;2023-06-10T06:37:51;13.40;;;10.90;;
8247;SDS011;4164;49.844;8.830;2023-06-10T06:40:17;13.07;;;10.80;;
8247;SDS011;4164;49.844;8.830;2023-06-10T06:42:42;14.23;;;10.77;;
8247;SDS011;4164;49.844;8.830;2023-06-10T06:45:08;11.87;;;10.63;;
8247;SDS011;4164;49.844;8.830;2023-06-10T06:47:34;11.43;;;10.17;;
8247;SDS011;4164;49.844;8.830;2023-06-10T06:49:59;11.40;;;10.20;;
8247;SDS011;4164;49.844;8.830;2023-06-10T06:52:25;11.40;;;10.23;;
8247;SDS011;4164;49.844;8.830;2023-06-10T06:54:51;11.63;;;9.97;;
8247;SDS011;4164;49.844;8.830;2023-06-10T06:57:16;11.50;;;10.40;;
8247;SDS011;4164;49.844;8.830;2023-06-10T06:59:42;12.03;;;10.93;;
8247;SDS011;4164;49.844;8.830;2023-06-10T07:02:07;12.13;;;10.50;;
8247;SDS011;4164;49.844;8.830;2023-06-10T07:04:33;12.90;;;10.23;;
8247;SDS011;4164;49.844;8.830;2023-06-10T07:06:58;14.40;;;10.00;;
8247;SDS011;4164;49.844;8.830;2023-06-10T07:09:24;11.27;;;10.17;;
8247;SDS011;4164;49.844;8.830;2023-06-10T07:11:49;10.80;;;9.70;;
8247;SDS011;4164;49.844;8.830;2023-06-10T07:14:15;13.63;;;8.93;;
8247;SDS011;4164;49.844;8.830;2023-06-10T07:16:40;10.93;;;9.80;;
8247;SDS011;4164;49.844;8.830;2023-06-10T07:19:06;11.40;;;9.00;;
8247;SDS011;4164;49.844;8.830;2023-06-10T07:21:32;9.50;;;8.37;;
8247;SDS011;4164;49.844;8.830;2023-06-10T07:23:58;10.77;;;9.33;;
8247;SDS011;4164;49.844;8.830;2023-06-10T07:26:24;10.10;;;8.73;;
8247;SDS011;4164;49.844;8.830;2023-06-10T07:28:50;9.17;;;8.27;;
8247;SDS011;4164;49.844;8.830;2023-06-10T07:31:16;9.17;;;8.27;;
8247;SDS011;4164;49.844;8.830;2023-06-10T07:33:42;9.80;;;7.80;;
8247;SDS011;4164;49.844;8.830;2023-06-10T07:36:08;9.70;;;8.03;;
8247;SDS011;4164;49.844;8.830;2023-06-10T07:38:34;9.10;;;8.07;;
8247;SDS011;4164;49.844;8.830;2023-06-10T07:41:00;10.03;;;8.23;;
8247;SDS011;4164;49.844;8.830;2023-06-10T07:43:26;9.57;;;8.00;;
8247;SDS011;4164;49.844;8.830;2023-06-10T07:45:52;11.20;;;7.97;;
8247;SDS011;4164;49.844;8.830;2023-06-10T07:48:17;9.27;;;7.67;;
8247;SDS011;4164;49.844;8.830;2023-06-10T07:50:43;8.23;;;7.43;;
8247;SDS011;4164;49.844;8.830;2023-06-10T07:53:08;9.57;;;7.40;;
8247;SDS011;4164;49.844;8.830;2023-06-10T07:55:34;9.70;;;7.17;;
8247;SDS011;4164;49.844;8.830;2023-06-10T07:58:00;9.27;;;8.20;;
8247;SDS011;4164;49.844;8.830;2023-06-10T08:00:25;8.57;;;7.67;;
8247;SDS011;4164;49.844;8.830;2023-06-10T08:02:51;11.77;;;7.20;;
8247;SDS011;4164;49.844;8.830;2023-06-10T08:05:17;9.17;;;8.07;;
8247;SDS011;4164;49.844;8.830;2023-06-10T08:07:42;8.43;;;7.63;;
8247;SDS011;4164;49.844;8.830;2023-06-10T08:10:08;13.30;;;8.83;;
8247;SDS011;4164;49.844;8.830;2023-06-10T08:12:34;9.97;;;7.90;;
8247;SDS011;4164;49.844;8.830;2023-06-10T08:15:00;11.70;;;8.13;;
8247;SDS011;4164;49.844;8.830;2023-06-10T08:17:26;14.03;;;9.23;;
8247;SDS011;4164;49.844;8.830;2023-06-10T08:19:51;9.40;;;8.50;;
8247;SDS011;4164;49.844;8.830;2023-06-10T08:22:17;11.40;;;7.83;;
8247;SDS011;4164;49.844;8.830;2023-06-10T08:24:42;8.80;;;7.63;;
8247;SDS011;4164;49.844;8.830;2023-06-10T08:27:08;10.43;;;7.77;;
8247;SDS011;4164;49.844;8.830;2023-06-10T08:29:33;12.07;;;8.60;;
8247;SDS011;4164;49.844;8.830;2023-06-10T08:31:59;9.53;;;8.50;;
8247;SDS011;4164;49.844;8.830;2023-06-10T08:34:25;10.07;;;9.07;;
8247;SDS011;4164;49.844;8.830;2023-06-10T08:36:50;10.17;;;8.87;;
8247;SDS011;4164;49.844;8.830;2023-06-10T08:39:20;10.13;;;9.13;;
8247;SDS011;4164;49.844;8.830;2023-06-10T08:44:40;9.40;;;8.50;;
8247;SDS011;4164;49.844;8.830;2023-06-10T08:47:12;10.63;;;8.63;;
8247;SDS011;4164;49.844;8.830;2023-06-10T08:49:41;9.90;;;7.70;;
8247;SDS011;4164;49.844;8.830;2023-06-10T08:52:11;11.30;;;8.30;;
8247;SDS011;4164;49.844;8.830;2023-06-10T08:54:45;9.70;;;8.70;;
8247;SDS011;4164;49.844;8.830;2023-06-10T08:57:16;9.07;;;8.27;;
8247;SDS011;4164;49.844;8.830;2023-06-10T08:59:45;11.60;;;8.60;;
8247;SDS011;4164;49.844;8.830;2023-06-10T09:02:11;9.53;;;8.53;;
8247;SDS011;4164;49.844;8.830;2023-06-10T09:04:38;10.80;;;7.87;;
8247;SDS011;4164;49.844;8.830;2023-06-10T09:07:04;9.80;;;8.13;;
8247;SDS011;4164;49.844;8.830;2023-06-10T09:09:30;11.33;;;8.77;;
8247;SDS011;4164;49.844;8.830;2023-06-10T09:11:57;9.50;;;8.60;;
8247;SDS011;4164;49.844;8.830;2023-06-10T09:14:23;9.83;;;8.03;;
8247;SDS011;4164;49.844;8.830;2023-06-10T09:16:49;111.60;;;27.60;;
8247;SDS011;4164;49.844;8.830;2023-06-10T09:19:15;20.73;;;9.43;;
8247;SDS011;4164;49.844;8.830;2023-06-10T09:21:41;11.23;;;7.83;;
8247;SDS011;4164;49.844;8.830;2023-06-10T09:24:07;11.80;;;8.60;;
8247;SDS011;4164;49.844;8.830;2023-06-10T09:26:32;8.90;;;7.93;;
8247;SDS011;4164;49.844;8.830;2023-06-10T09:29:04;9.13;;;8.23;;
8247;SDS011;4164;49.844;8.830;2023-06-10T09:31:34;29.50;;;10.17;;
8247;SDS011;4164;49.844;8.830;2023-06-10T09:34:19;24.17;;;9.70;;
8247;SDS011;4164;49.844;8.830;2023-06-10T09:36:49;8.73;;;8.00;;
8247;SDS011;4164;49.844;8.830;2023-06-10T09:39:16;10.13;;;7.50;;
8247;SDS011;4164;49.844;8.830;2023-06-10T09:41:43;8.33;;;7.33;;
8247;SDS011;4164;49.844;8.830;2023-06-10T09:44:17;9.73;;;7.27;;
8247;SDS011;4164;49.844;8.830;2023-06-10T09:46:45;10.03;;;6.77;;
8247;SDS011;4164;49.844;8.830;2023-06-10T09:49:13;10.50;;;7.40;;
8247;SDS011;4164;49.844;8.830;2023-06-10T09:51:54;8.77;;;6.77;;
8247;SDS011;4164;49.844;8.830;2023-06-10T09:54:20;8.50;;;7.67;;
8247;SDS011;4164;49.844;8.830;2023-06-10T09:56:51;9.47;;;6.23;;
8247;SDS011;4164;49.844;8.830;2023-06-10T09:59:28;7.07;;;6.37;;
8247;SDS011;4164;49.844;8.830;2023-06-10T10:01:55;6.27;;;5.53;;
8247;SDS011;4164;49.844;8.830;2023-06-10T10:04:24;6.40;;;5.77;;
8247;SDS011;4164;49.844;8.830;2023-06-10T10:06:50;7.77;;;6.07;;
8247;SDS011;4164;49.844;8.830;2023-06-10T10:09:16;9.23;;;6.07;;
8247;SDS011;4164;49.844;8.830;2023-06-10T10:11:41;7.43;;;5.90;;
8247;SDS011;4164;49.844;8.830;2023-06-10T10:14:09;6.20;;;5.60;;
8247;SDS011;4164;49.844;8.830;2023-06-10T10:16:37;6.10;;;5.07;;
8247;SDS011;4164;49.844;8.830;2023-06-10T10:19:25;6.90;;;5.20;;
8247;SDS011;4164;49.844;8.830;2023-06-10T10:21:56;6.47;;;5.30;;
8247;SDS011;4164;49.844;8.830;2023-06-10T10:24:41;5.33;;;4.83;;
8247;SDS011;4164;49.844;8.830;2023-06-10T10:27:14;7.70;;;4.93;;
8247;SDS011;4164;49.844;8.830;2023-06-10T10:29:44;5.27;;;4.13;;
8247;SDS011;4164;49.844;8.830;2023-06-10T10:32:12;7.47;;;4.53;;
8247;SDS011;4164;49.844;8.830;2023-06-10T10:37:09;5.07;;;4.30;;
8247;SDS011;4164;49.844;8.830;2023-06-10T10:39:35;4.93;;;4.20;;
8247;SDS011;4164;49.844;8.830;2023-06-10T10:42:01;7.97;;;4.50;;
8247;SDS011;4164;49.844;8.830;2023-06-10T10:44:29;6.00;;;3.90;;
8247;SDS011;4164;49.844;8.830;2023-06-10T10:46:56;4.13;;;3.83;;
8247;SDS011;4164;49.844;8.830;2023-06-10T10:49:27;4.80;;;4.30;;
8247;SDS011;4164;49.844;8.830;2023-06-10T10:51:57;4.60;;;4.23;;
8247;SDS011;4164;49.844;8.830;2023-06-10T10:54:33;5.13;;;3.73;;
8247;SDS011;4164;49.844;8.830;2023-06-10T11:02:17;7.87;;;4.37;;
8247;SDS011;4164;49.844;8.830;2023-06-10T11:04:47;5.40;;;4.63;;
8247;SDS011;4164;49.844;8.830;2023-06-10T11:07:13;6.47;;;4.77;;
8247;SDS011;4164;49.844;8.830;2023-06-10T11:10:01;4.33;;;3.93;;
8247;SDS011;4164;49.844;8.830;2023-06-10T11:18:09;4.50;;;4.10;;
8247;SDS011;4164;49.844;8.830;2023-06-10T11:31:22;5.53;;;4.43;;
8247;SDS011;4164;49.844;8.830;2023-06-10T11:34:00;5.50;;;3.97;;
8247;SDS011;4164;49.844;8.830;2023-06-10T11:36:32;4.97;;;3.70;;
8247;SDS011;4164;49.844;8.830;2023-06-10T11:38:59;4.37;;;3.97;;
8247;SDS011;4164;49.844;8.830;2023-06-10T11:41:27;4.40;;;4.00;;
8247;SDS011;4164;49.844;8.830;2023-06-10T11:43:54;5.63;;;4.20;;
8247;SDS011;4164;49.844;8.830;2023-06-10T11:46:23;4.50;;;4.10;;
8247;SDS011;4164;49.844;8.830;2023-06-10T11:48:52;4.37;;;3.97;;
8247;SDS011;4164;49.844;8.830;2023-06-10T11:51:19;4.50;;;4.10;;
8247;SDS011;4164;49.844;8.830;2023-06-10T11:53:46;5.20;;;4.27;;
8247;SDS011;4164;49.844;8.830;2023-06-10T11:56:25;6.47;;;4.10;;
8247;SDS011;4164;49.844;8.830;2023-06-10T11:58:52;3.97;;;3.67;;
8247;SDS011;4164;49.844;8.830;2023-06-10T12:01:22;8.83;;;4.20;;
8247;SDS011;4164;49.844;8.830;2023-06-10T12:03:59;4.73;;;3.60;;
8247;SDS011;4164;49.844;8.830;2023-06-10T12:06:26;25.27;;;4.07;;
8247;SDS011;4164;49.844;8.830;2023-06-10T12:08:55;74.67;;;6.23;;
8247;SDS011;4164;49.844;8.830;2023-06-10T12:11:21;101.00;;;6.83;;
8247;SDS011;4164;49.844;8.830;2023-06-10T12:13:48;16.13;;;4.17;;
8247;SDS011;4164;49.844;8.830;2023-06-10T12:16:15;76.07;;;5.80;;
8247;SDS011;4164;49.844;8.830;2023-06-10T12:18:42;15.80;;;4.40;;
8247;SDS011;4164;49.844;8.830;2023-06-10T12:21:16;6.80;;;3.75;;
8247;SDS011;4164;49.844;8.830;2023-06-10T12:26:35;20.70;;;5.00;;
8247;SDS011;4164;49.844;8.830;2023-06-10T12:29:12;5.82;;;3.70;;
8247;SDS011;4164;49.844;8.830;2023-06-10T12:31:56;7.88;;;4.63;;
8247;SDS011;4164;49.844;8.830;2023-06-10T12:36:54;10.90;;;3.95;;
8247;SDS011;4164;49.844;8.830;2023-06-10T12:39:19;29.40;;;5.53;;
8247;SDS011;4164;49.844;8.830;2023-06-10T12:41:49;8.45;;;4.38;;
8247;SDS011;4164;49.844;8.830;2023-06-10T12:44:16;9.68;;;3.90;;
8247;SDS011;4164;49.844;8.830;2023-06-10T12:46:41;6.15;;;4.13;;
8247;SDS011;4164;49.844;8.830;2023-06-10T12:49:07;5.78;;;4.30;;
8247;SDS011;4164;49.844;8.830;2023-06-10T12:51:32;7.45;;;3.95;;
8247;SDS011;4164;49.844;8.830;2023-06-10T12:53:59;6.85;;;4.03;;
8247;SDS011;4164;49.844;8.830;2023-06-10T12:56:25;18.15;;;6.20;;
8247;SDS011;4164;49.844;8.830;2023-06-10T12:58:50;7.23;;;4.30;;
8247;SDS011;4164;49.844;8.830;2023-06-10T13:01:16;11.33;;;4.57;;
8247;SDS011;4164;49.844;8.830;2023-06-10T13:03:41;8.03;;;4.10;;
8247;SDS011;4164;49.844;8.830;2023-06-10T13:06:07;7.70;;;4.17;;
8247;SDS011;4164;49.844;8.830;2023-06-10T13:08:32;5.45;;;4.05;;
8247;SDS011;4164;49.844;8.830;2023-06-10T13:10:58;4.03;;;3.72;;
8247;SDS011;4164;49.844;8.830;2023-06-10T13:13:24;4.50;;;4.07;;
8247;SDS011;4164;49.844;8.830;2023-06-10T13:15:50;4.43;;;4.03;;
8247;SDS011;4164;49.844;8.830;2023-06-10T13:18:16;9.02;;;4.00;;
8247;SDS011;4164;49.844;8.830;2023-06-10T13:20:43;6.13;;;4.03;;
8247;SDS011;4164;49.844;8.830;2023-06-10T13:23:09;9.57;;;4.65;;
8247;SDS011;4164;49.844;8.830;2023-06-10T13:25:35;5.43;;;4.78;;
8247;SDS011;4164;49.844;8.830;2023-06-10T13:28:00;6.47;;;4.35;;
8247;SDS011;4164;49.844;8.830;2023-06-10T13:30:26;4.43;;;4.13;;
8247;SDS011;4164;49.844;8.830;2023-06-10T13:32:52;5.05;;;4.55;;
8247;SDS011;4164;49.844;8.830;2023-06-10T13:35:17;5.18;;;4.28;;
8247;SDS011;4164;49.844;8.830;2023-06-10T13:37:43;4.35;;;3.90;;
8247;SDS011;4164;49.844;8.830;2023-06-10T13:40:09;4.15;;;3.85;;
8247;SDS011;4164;49.844;8.830;2023-06-10T13:42:35;5.30;;;4.18;;
8247;SDS011;4164;49.844;8.830;2023-06-10T13:45:01;4.97;;;3.53;;
8247;SDS011;4164;49.844;8.830;2023-06-10T13:47:27;4.40;;;4.10;;
8247;SDS011;4164;49.844;8.830;2023-06-10T13:49:53;5.35;;;3.90;;
8247;SDS011;4164;49.844;8.830;2023-06-10T13:52:18;7.68;;;4.18;;
8247;SDS011;4164;49.844;8.830;2023-06-10T13:54:44;4.20;;;3.80;;
8247;SDS011;4164;49.844;8.830;2023-06-10T13:57:10;4.80;;;3.72;;
8247;SDS011;4164;49.844;8.830;2023-06-10T13:59:35;5.30;;;4.30;;
8247;SDS011;4164;49.844;8.830;2023-06-10T14:02:01;3.92;;;3.63;;
8247;SDS011;4164;49.844;8.830;2023-06-10T14:04:27;7.40;;;3.90;;
8247;SDS011;4164;49.844;8.830;2023-06-10T14:06:52;10.07;;;3.80;;
8247;SDS011;4164;49.844;8.830;2023-06-10T14:09:18;5.53;;;3.75;;
8247;SDS011;4164;49.844;8.830;2023-06-10T14:11:44;4.03;;;3.67;;
8247;SDS011;4164;49.844;8.830;2023-06-10T14:14:09;4.72;;;4.20;;
8247;SDS011;4164;49.844;8.830;2023-06-10T14:16:35;15.07;;;4.40;;
8247;SDS011;4164;49.844;8.830;2023-06-10T14:19:01;12.75;;;4.65;;
8247;SDS011;4164;49.844;8.830;2023-06-10T14:21:26;4.40;;;4.00;;
8247;SDS011;4164;49.844;8.830;2023-06-10T14:23:52;4.03;;;3.65;;
8247;SDS011;4164;49.844;8.830;2023-06-10T14:26:18;3.88;;;3.58;;
8247;SDS011;4164;49.844;8.830;2023-06-10T14:28:45;6.45;;;4.60;;
8247;SDS011;4164;49.844;8.830;2023-06-10T14:31:11;3.53;;;3.17;;
8247;SDS011;4164;49.844;8.830;2023-06-10T14:33:36;3.95;;;3.63;;
8247;SDS011;4164;49.844;8.830;2023-06-10T14:36:02;3.90;;;3.60;;
8247;SDS011;4164;49.844;8.830;2023-06-10T14:38:27;5.55;;;3.33;;
8247;SDS011;4164;49.844;8.830;2023-06-10T14:40:53;3.95;;;3.63;;
8247;SDS011;4164;49.844;8.830;2023-06-10T14:43:18;3.97;;;3.40;;
8247;SDS011;4164;49.844;8.830;2023-06-10T14:45:44;3.92;;;3.45;;
8247;SDS011;4164;49.844;8.830;2023-06-10T14:48:10;6.63;;;3.60;;
8247;SDS011;4164;49.844;8.830;2023-06-10T14:50:36;4.30;;;3.90;;
8247;SDS011;4164;49.844;8.830;2023-06-10T14:53:02;4.05;;;3.75;;
8247;SDS011;4164;49.844;8.830;2023-06-10T14:55:28;3.85;;;3.55;;
8247;SDS011;4164;49.844;8.830;2023-06-10T14:57:53;4.47;;;3.80;;
8247;SDS011;4164;49.844;8.830;2023-06-10T15:00:20;4.82;;;3.40;;
8247;SDS011;4164;49.844;8.830;2023-06-10T15:02:48;3.85;;;3.55;;
8247;SDS011;4164;49.844;8.830;2023-06-10T15:05:14;4.55;;;3.33;;
8247;SDS011;4164;49.844;8.830;2023-06-10T15:07:40;4.00;;;3.60;;
8247;SDS011;4164;49.844;8.830;2023-06-10T15:10:07;3.83;;;3.53;;
8247;SDS011;4164;49.844;8.830;2023-06-10T15:12:33;4.82;;;3.60;;
8247;SDS011;4164;49.844;8.830;2023-06-10T15:14:59;4.10;;;3.70;;
8247;SDS011;4164;49.844;8.830;2023-06-10T15:17:24;3.83;;;3.53;;
8247;SDS011;4164;49.844;8.830;2023-06-10T15:19:50;15.53;;;4.67;;
8247;SDS011;4164;49.844;8.830;2023-06-10T15:22:16;15.07;;;4.47;;
8247;SDS011;4164;49.844;8.830;2023-06-10T15:24:42;6.93;;;4.17;;
8247;SDS011;4164;49.844;8.830;2023-06-10T15:27:07;5.43;;;3.87;;
8247;SDS011;4164;49.844;8.830;2023-06-10T15:29:33;4.13;;;3.73;;
8247;SDS011;4164;49.844;8.830;2023-06-10T15:31:58;6.07;;;3.80;;
8247;SDS011;4164;49.844;8.830;2023-06-10T15:34:24;4.53;;;3.77;;
8247;SDS011;4164;49.844;8.830;2023-06-10T15:36:49;5.33;;;4.13;;
8247;SDS011;4164;49.844;8.830;2023-06-10T15:39:15;4.33;;;3.93;;